createdAt,value
2018-07-10T00:00:09.031Z,33.18
2018-07-10T00:01:09.058Z,33.76
2018-07-10T00:02:09.084Z,33.09
2018-07-10T00:03:09.111Z,33.28
2018-07-10T00:04:09.142Z,33.28
2018-07-10T00:05:09.209Z,33.47
2018-07-10T00:06:09.192Z,33.28
2018-07-10T00:07:09.219Z,33.18
2018-07-10T00:08:09.328Z,33.18
2018-07-10T00:09:09.275Z,33.28
2018-07-10T00:10:09.301Z,33.37
2018-07-10T00:11:09.329Z,33.37
2018-07-10T00:12:09.369Z,33.47
2018-07-10T00:13:09.384Z,33.18
2018-07-10T00:14:09.408Z,33.37
2018-07-10T00:15:09.436Z,33.28
2018-07-10T00:16:09.465Z,33.28
2018-07-10T00:17:09.491Z,33.18
2018-07-10T00:18:09.518Z,33.28
2018-07-10T00:19:09.545Z,33.18
2018-07-10T00:20:09.571Z,33.17
2018-07-10T00:21:09.599Z,33.26
2018-07-10T00:22:09.626Z,33.37
2018-07-10T00:23:09.652Z,33.37
2018-07-10T00:24:09.680Z,33.17
2018-07-10T00:25:09.707Z,33.45
2018-07-10T00:26:09.734Z,33.26
2018-07-10T00:27:09.761Z,33.75
2018-07-10T00:28:09.788Z,33.28
2018-07-10T00:29:09.830Z,33.26
2018-07-10T00:30:09.842Z,33.18
2018-07-10T00:31:09.869Z,33.28
2018-07-10T00:32:09.896Z,33.45
2018-07-10T00:33:09.924Z,33.28
2018-07-10T00:34:09.950Z,33.28
2018-07-10T00:35:09.977Z,33.47
2018-07-10T00:36:10.038Z,33.37
2018-07-10T00:37:10.033Z,33.28
2018-07-10T00:38:10.078Z,33.26
2018-07-10T00:39:10.088Z,33.37
2018-07-10T00:40:10.113Z,33.28
2018-07-10T00:41:10.141Z,33.28
2018-07-10T00:42:10.221Z,33.28
2018-07-10T00:43:10.194Z,33.36
2018-07-10T00:44:10.222Z,33.57
2018-07-10T00:45:10.269Z,33.17
2018-07-10T00:46:10.276Z,33.28
2018-07-10T00:47:10.303Z,33.26
2018-07-10T00:48:10.330Z,33.17
2018-07-10T00:49:10.357Z,33.18
2018-07-10T00:50:10.384Z,33.36
2018-07-10T00:51:10.412Z,33.26
2018-07-10T00:52:10.439Z,33.28
2018-07-10T00:53:10.467Z,33.28
2018-07-10T00:54:10.493Z,33.28
2018-07-10T00:55:10.520Z,33.26
2018-07-10T00:56:10.547Z,33.26
2018-07-10T00:57:10.574Z,33.28
2018-07-10T00:58:10.602Z,33.26
2018-07-10T00:59:10.627Z,33.28
2018-07-10T01:00:10.655Z,33.37
2018-07-10T01:01:10.683Z,33.37
2018-07-10T01:02:10.745Z,33.45
2018-07-10T01:03:10.736Z,33.36
2018-07-10T01:04:10.769Z,33.37
2018-07-10T01:05:10.791Z,33.55
2018-07-10T01:06:10.817Z,33.57
2018-07-10T01:07:10.844Z,32.99
2018-07-10T01:08:10.872Z,32.97
2018-07-10T01:09:10.898Z,33.17
2018-07-10T01:10:10.925Z,33.57
2018-07-10T01:11:10.982Z,33.17
2018-07-10T01:12:10.980Z,33.18
2018-07-10T01:13:11.008Z,33.26
2018-07-10T01:14:11.033Z,33.76
2018-07-10T01:15:11.060Z,33.09
2018-07-10T01:16:11.088Z,33.67
2018-07-10T01:17:11.116Z,33.07
2018-07-10T01:18:11.144Z,33.09
2018-07-10T01:19:11.169Z,33.28
2018-07-10T01:20:11.199Z,33.17
2018-07-10T01:21:11.222Z,33.28
2018-07-10T01:22:11.249Z,33.28
2018-07-10T01:23:11.279Z,33.18
2018-07-10T01:24:11.303Z,33.57
2018-07-10T01:25:11.332Z,33.36
2018-07-10T01:26:11.357Z,33.28
2018-07-10T01:27:11.398Z,33.28
2018-07-10T01:28:11.412Z,32.87
2018-07-10T01:29:11.439Z,33.18
2018-07-10T01:30:11.466Z,33.07
2018-07-10T01:31:11.494Z,33.28
2018-07-10T01:32:11.520Z,33.26
2018-07-10T01:33:11.547Z,32.99
2018-07-10T01:34:11.604Z,33.07
2018-07-10T01:35:11.602Z,32.89
2018-07-10T01:36:11.665Z,33.09
2018-07-10T01:37:11.656Z,33.28
2018-07-10T01:38:11.682Z,33.18
2018-07-10T01:39:11.747Z,33.18
2018-07-10T01:40:11.736Z,32.99
2018-07-10T01:41:11.763Z,33.28
2018-07-10T01:42:11.790Z,32.79
2018-07-10T01:43:11.817Z,33.18
2018-07-10T01:44:11.845Z,33.18
2018-07-10T01:45:11.871Z,33.18
2018-07-10T01:46:11.900Z,33.28
2018-07-10T01:47:11.925Z,33.18
2018-07-10T01:48:11.953Z,33.28
2018-07-10T01:49:11.980Z,33.18
2018-07-10T01:50:12.007Z,33.37
2018-07-10T01:51:12.033Z,33.09
2018-07-10T01:52:12.061Z,32.31
2018-07-10T01:53:12.122Z,33.18
2018-07-10T01:54:12.113Z,33.09
2018-07-10T01:55:12.169Z,33.09
2018-07-10T01:56:12.168Z,32.99
2018-07-10T01:57:12.196Z,33.09
2018-07-10T01:58:12.222Z,32.79
2018-07-10T01:59:12.249Z,33.09
2018-07-10T02:00:12.278Z,32.89
2018-07-10T02:01:12.304Z,32.99
2018-07-10T02:02:12.350Z,32.79
2018-07-10T02:03:12.361Z,32.79
2018-07-10T02:04:12.414Z,32.21
2018-07-10T02:05:12.413Z,32.99
2018-07-10T02:06:12.438Z,32.99
2018-07-10T02:07:12.466Z,32.99
2018-07-10T02:08:12.493Z,32.89
2018-07-10T02:09:12.520Z,33.18
2018-07-10T02:10:12.546Z,33.09
2018-07-10T02:11:12.575Z,32.79
2018-07-10T02:12:12.602Z,32.70
2018-07-10T02:13:12.629Z,32.99
2018-07-10T02:14:12.654Z,32.70
2018-07-10T02:15:12.682Z,32.79
2018-07-10T02:16:12.733Z,32.79
2018-07-10T02:17:12.736Z,32.70
2018-07-10T02:18:12.763Z,32.70
2018-07-10T02:19:12.790Z,32.79
2018-07-10T02:20:12.817Z,32.70
2018-07-10T02:21:12.845Z,32.79
2018-07-10T02:22:12.871Z,32.70
2018-07-10T02:23:12.910Z,32.89
2018-07-10T02:24:12.925Z,32.79
2018-07-10T02:25:12.953Z,32.79
2018-07-10T02:26:12.980Z,32.79
2018-07-10T02:27:13.006Z,32.79
2018-07-10T02:28:13.042Z,32.99
2018-07-10T02:29:13.061Z,32.79
2018-07-10T02:30:13.087Z,32.99
2018-07-10T02:31:13.154Z,32.79
2018-07-10T02:32:13.141Z,32.89
2018-07-10T02:33:13.180Z,32.89
2018-07-10T02:34:13.195Z,32.79
2018-07-10T02:35:13.225Z,32.89
2018-07-10T02:36:13.251Z,32.91
2018-07-10T02:37:13.289Z,32.70
2018-07-10T02:38:13.304Z,32.81
2018-07-10T02:39:13.331Z,32.99
2018-07-10T02:40:13.360Z,32.89
2018-07-10T02:41:13.385Z,32.89
2018-07-10T02:42:13.411Z,32.99
2018-07-10T02:43:13.439Z,32.89
2018-07-10T02:44:13.467Z,32.99
2018-07-10T02:45:13.494Z,32.79
2018-07-10T02:46:13.520Z,32.89
2018-07-10T02:47:13.547Z,32.99
2018-07-10T02:48:13.575Z,32.89
2018-07-10T02:49:13.602Z,32.79
2018-07-10T02:50:13.628Z,32.89
2018-07-10T02:51:13.658Z,32.70
2018-07-10T02:52:13.702Z,32.79
2018-07-10T02:53:13.715Z,33.09
2018-07-10T02:54:13.736Z,32.52
2018-07-10T02:55:13.765Z,32.62
2018-07-10T02:56:13.792Z,32.52
2018-07-10T02:57:13.818Z,32.42
2018-07-10T02:58:13.845Z,32.42
2018-07-10T02:59:13.874Z,32.42
2018-07-10T03:00:13.901Z,32.42
2018-07-10T03:01:13.928Z,32.23
2018-07-10T03:02:13.954Z,31.94
2018-07-10T03:03:13.981Z,32.14
2018-07-10T03:04:14.028Z,32.04
2018-07-10T03:05:14.038Z,31.94
2018-07-10T03:06:14.062Z,31.86
2018-07-10T03:07:14.089Z,31.96
2018-07-10T03:08:14.117Z,32.06
2018-07-10T03:09:14.143Z,32.44
2018-07-10T03:10:14.171Z,31.76
2018-07-10T03:11:14.198Z,31.86
2018-07-10T03:12:14.226Z,31.86
2018-07-10T03:13:14.253Z,32.06
2018-07-10T03:14:14.279Z,31.96
2018-07-10T03:15:14.306Z,31.96
2018-07-10T03:16:14.335Z,32.15
2018-07-10T03:17:14.368Z,31.86
2018-07-10T03:18:14.388Z,31.67
2018-07-10T03:19:14.431Z,31.67
2018-07-10T03:20:14.447Z,31.67
2018-07-10T03:21:14.471Z,31.67
2018-07-10T03:22:14.497Z,31.57
2018-07-10T03:23:14.524Z,31.67
2018-07-10T03:24:14.553Z,31.76
2018-07-10T03:25:14.581Z,31.86
2018-07-10T03:26:14.606Z,31.57
2018-07-10T03:27:14.633Z,31.67
2018-07-10T03:28:14.685Z,31.67
2018-07-10T03:29:14.703Z,31.67
2018-07-10T03:30:14.715Z,31.67
2018-07-10T03:31:14.743Z,31.67
2018-07-10T03:32:14.772Z,31.86
2018-07-10T03:33:14.797Z,32.06
2018-07-10T03:34:14.824Z,32.06
2018-07-10T03:35:14.851Z,31.87
2018-07-10T03:36:14.879Z,31.97
2018-07-10T03:37:14.907Z,31.97
2018-07-10T03:38:14.935Z,32.06
2018-07-10T03:39:14.961Z,32.06
2018-07-10T03:40:14.988Z,32.07
2018-07-10T03:41:15.017Z,32.24
2018-07-10T03:42:15.043Z,31.86
2018-07-10T03:43:15.090Z,31.76
2018-07-10T03:44:15.140Z,31.86
2018-07-10T03:45:15.125Z,31.78
2018-07-10T03:46:15.152Z,31.96
2018-07-10T03:47:15.180Z,32.24
2018-07-10T03:48:15.207Z,32.15
2018-07-10T03:49:15.235Z,31.96
2018-07-10T03:50:15.308Z,32.07
2018-07-10T03:51:15.288Z,32.46
2018-07-10T03:52:15.315Z,31.96
2018-07-10T03:53:15.343Z,32.17
2018-07-10T03:54:15.370Z,32.34
2018-07-10T03:55:15.397Z,32.36
2018-07-10T03:56:15.425Z,31.87
2018-07-10T03:57:15.487Z,32.17
2018-07-10T03:58:15.479Z,31.76
2018-07-10T03:59:15.506Z,31.87
2018-07-10T04:00:15.535Z,31.97
2018-07-10T04:01:15.562Z,32.07
2018-07-10T04:02:15.589Z,32.07
2018-07-10T04:03:15.617Z,31.68
2018-07-10T04:04:15.644Z,31.68
2018-07-10T04:05:15.672Z,31.78
2018-07-10T04:06:15.698Z,32.07
2018-07-10T04:07:15.725Z,31.68
2018-07-10T04:08:15.783Z,31.68
2018-07-10T04:09:15.794Z,31.68
2018-07-10T04:10:15.810Z,31.78
2018-07-10T04:11:15.836Z,31.68
2018-07-10T04:12:15.863Z,31.68
2018-07-10T04:13:15.914Z,31.68
2018-07-10T04:14:15.917Z,31.78
2018-07-10T04:15:15.944Z,31.78
2018-07-10T04:16:15.972Z,31.78
2018-07-10T04:17:16.003Z,31.60
2018-07-10T04:18:16.027Z,31.68
2018-07-10T04:19:16.054Z,31.59
2018-07-10T04:20:16.082Z,31.60
2018-07-10T04:21:16.109Z,31.50
2018-07-10T04:22:16.142Z,31.60
2018-07-10T04:23:16.165Z,31.89
2018-07-10T04:24:16.191Z,31.79
2018-07-10T04:25:16.219Z,31.89
2018-07-10T04:26:16.247Z,31.70
2018-07-10T04:27:16.273Z,31.50
2018-07-10T04:28:16.306Z,31.89
2018-07-10T04:29:16.329Z,31.70
2018-07-10T04:30:16.355Z,31.70
2018-07-10T04:31:16.384Z,31.70
2018-07-10T04:32:16.412Z,31.70
2018-07-10T04:33:16.445Z,31.70
2018-07-10T04:34:16.468Z,31.79
2018-07-10T04:35:16.494Z,31.99
2018-07-10T04:36:16.522Z,31.97
2018-07-10T04:37:16.550Z,32.17
2018-07-10T04:38:16.578Z,31.87
2018-07-10T04:39:16.606Z,32.17
2018-07-10T04:40:16.631Z,31.97
2018-07-10T04:41:16.659Z,31.97
2018-07-10T04:42:16.795Z,32.36
2018-07-10T04:43:16.716Z,31.97
2018-07-10T04:44:16.742Z,32.17
2018-07-10T04:45:16.770Z,32.18
2018-07-10T04:46:16.796Z,32.17
2018-07-10T04:47:16.826Z,32.17
2018-07-10T04:48:16.851Z,31.97
2018-07-10T04:49:16.929Z,32.09
2018-07-10T04:50:16.927Z,32.17
2018-07-10T04:51:16.933Z,32.36
2018-07-10T04:52:16.961Z,31.97
2018-07-10T04:53:17.026Z,32.37
2018-07-10T04:54:17.044Z,31.97
2018-07-10T04:55:17.048Z,31.97
2018-07-10T04:56:17.082Z,31.97
2018-07-10T04:57:17.099Z,31.97
2018-07-10T04:58:17.128Z,31.87
2018-07-10T04:59:17.154Z,31.97
2018-07-10T05:00:17.182Z,32.07
2018-07-10T05:01:17.211Z,32.17
2018-07-10T05:02:17.235Z,32.07
2018-07-10T05:03:17.263Z,32.07
2018-07-10T05:04:17.291Z,32.26
2018-07-10T05:05:17.320Z,32.07
2018-07-10T05:06:17.351Z,32.07
2018-07-10T05:07:17.374Z,32.07
2018-07-10T05:08:17.401Z,32.17
2018-07-10T05:09:17.430Z,32.17
2018-07-10T05:10:17.457Z,32.26
2018-07-10T05:11:17.483Z,32.17
2018-07-10T05:12:17.512Z,32.18
2018-07-10T05:13:17.581Z,31.99
2018-07-10T05:14:17.566Z,32.09
2018-07-10T05:15:17.612Z,32.18
2018-07-10T05:16:17.622Z,32.09
2018-07-10T05:17:17.650Z,31.99
2018-07-10T05:18:17.676Z,31.79
2018-07-10T05:19:17.707Z,31.89
2018-07-10T05:20:17.732Z,31.89
2018-07-10T05:21:17.760Z,31.79
2018-07-10T05:22:17.786Z,31.89
2018-07-10T05:23:17.817Z,31.99
2018-07-10T05:24:17.842Z,32.28
2018-07-10T05:25:17.870Z,31.99
2018-07-10T05:26:17.896Z,31.99
2018-07-10T05:27:17.938Z,31.99
2018-07-10T05:28:17.953Z,31.99
2018-07-10T05:29:17.980Z,32.18
2018-07-10T05:30:18.008Z,32.28
2018-07-10T05:31:18.035Z,32.09
2018-07-10T05:32:18.064Z,32.09
2018-07-10T05:33:18.090Z,32.09
2018-07-10T05:34:18.120Z,31.99
2018-07-10T05:35:18.172Z,32.37
2018-07-10T05:36:18.174Z,32.09
2018-07-10T05:37:18.292Z,32.09
2018-07-10T05:38:18.227Z,32.09
2018-07-10T05:39:18.255Z,32.18
2018-07-10T05:40:18.284Z,31.99
2018-07-10T05:41:18.327Z,32.28
2018-07-10T05:42:18.343Z,32.18
2018-07-10T05:43:18.368Z,31.89
2018-07-10T05:44:18.394Z,32.28
2018-07-10T05:45:18.422Z,32.37
2018-07-10T05:46:18.470Z,32.37
2018-07-10T05:47:18.509Z,32.37
2018-07-10T05:48:18.528Z,32.18
2018-07-10T05:49:18.535Z,32.37
2018-07-10T05:50:18.561Z,32.37
2018-07-10T05:51:18.587Z,32.18
2018-07-10T05:52:18.614Z,32.28
2018-07-10T05:53:18.678Z,32.37
2018-07-10T05:54:18.669Z,32.28
2018-07-10T05:55:18.697Z,32.57
2018-07-10T05:56:18.724Z,32.28
2018-07-10T05:57:18.752Z,32.57
2018-07-10T05:58:18.797Z,32.37
2018-07-10T05:59:18.807Z,32.18
2018-07-10T06:00:18.835Z,32.28
2018-07-10T06:01:18.866Z,32.37
2018-07-10T06:02:18.889Z,32.37
2018-07-10T06:03:18.917Z,32.37
2018-07-10T06:04:18.945Z,32.47
2018-07-10T06:05:18.973Z,32.47
2018-07-10T06:06:18.999Z,32.37
2018-07-10T06:07:19.027Z,32.37
2018-07-10T06:08:19.055Z,32.37
2018-07-10T06:09:19.083Z,32.47
2018-07-10T06:10:19.158Z,32.47
2018-07-10T06:11:19.142Z,32.37
2018-07-10T06:12:19.165Z,32.37
2018-07-10T06:13:19.192Z,32.57
2018-07-10T06:14:19.221Z,32.36
2018-07-10T06:15:19.248Z,32.57
2018-07-10T06:16:19.366Z,32.37
2018-07-10T06:17:19.304Z,32.57
2018-07-10T06:18:19.330Z,32.28
2018-07-10T06:19:19.357Z,32.28
2018-07-10T06:20:19.386Z,32.28
2018-07-10T06:21:19.413Z,32.37
2018-07-10T06:22:19.447Z,32.28
2018-07-10T06:23:19.468Z,32.37
2018-07-10T06:24:19.495Z,32.37
2018-07-10T06:25:19.523Z,32.47
2018-07-10T06:26:19.552Z,32.37
2018-07-10T06:27:19.578Z,32.37
2018-07-10T06:28:19.606Z,32.37
2018-07-10T06:29:19.638Z,32.37
2018-07-10T06:30:19.699Z,32.37
2018-07-10T06:31:19.688Z,32.37
2018-07-10T06:32:19.716Z,32.37
2018-07-10T06:33:19.744Z,32.37
2018-07-10T06:34:19.770Z,32.28
2018-07-10T06:35:19.798Z,32.47
2018-07-10T06:36:19.826Z,32.37
2018-07-10T06:37:19.859Z,32.37
2018-07-10T06:38:19.916Z,32.47
2018-07-10T06:39:19.912Z,32.28
2018-07-10T06:40:19.945Z,32.37
2018-07-10T06:41:19.964Z,32.37
2018-07-10T06:42:19.991Z,32.47
2018-07-10T06:43:20.019Z,32.37
2018-07-10T06:44:20.066Z,32.47
2018-07-10T06:45:20.075Z,32.37
2018-07-10T06:46:20.101Z,32.47
2018-07-10T06:47:20.129Z,32.47
2018-07-10T06:48:20.158Z,32.37
2018-07-10T06:49:20.184Z,32.36
2018-07-10T06:50:20.212Z,32.37
2018-07-10T06:51:20.239Z,32.28
2018-07-10T06:52:20.327Z,32.37
2018-07-10T06:53:20.680Z,32.36
2018-07-10T06:54:20.326Z,32.37
2018-07-10T06:55:20.350Z,32.37
2018-07-10T06:56:20.377Z,32.37
2018-07-10T06:57:20.408Z,32.47
2018-07-10T06:58:20.432Z,32.47
2018-07-10T06:59:20.459Z,32.57
2018-07-10T07:00:20.486Z,32.67
2018-07-10T07:01:20.515Z,32.46
2018-07-10T07:02:20.569Z,32.57
2018-07-10T07:03:20.568Z,32.56
2018-07-10T07:04:20.597Z,32.47
2018-07-10T07:05:20.650Z,32.65
2018-07-10T07:06:20.652Z,32.47
2018-07-10T07:07:20.680Z,32.46
2018-07-10T07:08:20.707Z,32.47
2018-07-10T07:09:20.735Z,32.46
2018-07-10T07:10:20.767Z,32.26
2018-07-10T07:11:20.790Z,32.47
2018-07-10T07:12:20.818Z,32.36
2018-07-10T07:13:20.846Z,32.46
2018-07-10T07:14:20.871Z,32.37
2018-07-10T07:15:20.900Z,32.46
2018-07-10T07:16:20.927Z,32.37
2018-07-10T07:17:20.955Z,32.46
2018-07-10T07:18:20.982Z,32.36
2018-07-10T07:19:21.010Z,32.26
2018-07-10T07:20:21.037Z,32.37
2018-07-10T07:21:21.067Z,32.17
2018-07-10T07:22:21.091Z,32.46
2018-07-10T07:23:21.122Z,32.46
2018-07-10T07:24:21.147Z,32.46
2018-07-10T07:25:21.175Z,32.36
2018-07-10T07:26:21.203Z,32.36
2018-07-10T07:27:21.273Z,32.36
2018-07-10T07:28:21.259Z,32.36
2018-07-10T07:29:21.289Z,32.26
2018-07-10T07:30:21.316Z,32.36
2018-07-10T07:31:21.339Z,32.46
2018-07-10T07:32:21.368Z,32.46
2018-07-10T07:33:21.395Z,32.46
2018-07-10T07:34:21.423Z,32.36
2018-07-10T07:35:21.482Z,32.26
2018-07-10T07:36:21.478Z,32.46
2018-07-10T07:37:21.505Z,32.36
2018-07-10T07:38:21.532Z,32.26
2018-07-10T07:39:21.559Z,32.46
2018-07-10T07:40:21.598Z,32.36
2018-07-10T07:41:21.615Z,32.56
2018-07-10T07:42:21.641Z,32.36
2018-07-10T07:43:21.669Z,32.46
2018-07-10T07:44:21.705Z,32.36
2018-07-10T07:45:21.728Z,32.36
2018-07-10T07:46:21.790Z,32.56
2018-07-10T07:47:21.779Z,32.56
2018-07-10T07:48:21.807Z,32.56
2018-07-10T07:49:21.837Z,32.56
2018-07-10T07:50:21.861Z,32.56
2018-07-10T07:51:21.889Z,32.36
2018-07-10T07:52:21.917Z,32.56
2018-07-10T07:53:21.980Z,32.56
2018-07-10T07:54:21.972Z,32.46
2018-07-10T07:55:22.000Z,32.46
2018-07-10T07:56:22.060Z,32.36
2018-07-10T07:57:22.055Z,32.56
2018-07-10T07:58:22.107Z,32.36
2018-07-10T07:59:22.110Z,32.36
2018-07-10T08:00:22.202Z,32.46
2018-07-10T08:01:22.165Z,32.36
2018-07-10T08:02:22.192Z,32.46
2018-07-10T08:03:22.219Z,32.36
2018-07-10T08:04:22.247Z,32.46
2018-07-10T08:05:22.276Z,32.46
2018-07-10T08:06:22.302Z,32.36
2018-07-10T08:07:22.330Z,32.46
2018-07-10T08:08:22.378Z,32.46
2018-07-10T08:09:22.385Z,32.36
2018-07-10T08:10:22.411Z,32.46
2018-07-10T08:11:22.440Z,32.46
2018-07-10T08:12:22.547Z,32.56
2018-07-10T08:13:22.494Z,32.36
2018-07-10T08:14:22.522Z,32.46
2018-07-10T08:15:22.550Z,32.36
2018-07-10T08:16:22.577Z,32.26
2018-07-10T08:17:22.606Z,32.46
2018-07-10T08:18:22.631Z,32.46
2018-07-10T08:19:22.659Z,32.56
2018-07-10T08:20:22.687Z,32.56
2018-07-10T08:21:22.715Z,32.56
2018-07-10T08:22:22.741Z,32.65
2018-07-10T08:23:22.769Z,32.56
2018-07-10T08:24:22.807Z,32.65
2018-07-10T08:25:22.825Z,32.84
2018-07-10T08:26:22.874Z,32.46
2018-07-10T08:27:22.879Z,32.46
2018-07-10T08:28:22.910Z,32.46
2018-07-10T08:29:22.942Z,32.84
2018-07-10T08:30:22.982Z,32.46
2018-07-10T08:31:22.990Z,32.46
2018-07-10T08:32:23.017Z,32.46
2018-07-10T08:33:23.094Z,32.56
2018-07-10T08:34:23.072Z,32.65
2018-07-10T08:35:23.104Z,32.46
2018-07-10T08:36:23.129Z,32.46
2018-07-10T08:37:23.155Z,32.46
2018-07-10T08:38:23.182Z,32.56
2018-07-10T08:39:23.208Z,32.75
2018-07-10T08:40:23.236Z,32.65
2018-07-10T08:41:23.264Z,32.36
2018-07-10T08:42:23.291Z,32.65
2018-07-10T08:43:23.319Z,32.46
2018-07-10T08:44:23.347Z,32.65
2018-07-10T08:45:23.375Z,32.46
2018-07-10T08:46:23.417Z,32.56
2018-07-10T08:47:23.451Z,32.84
2018-07-10T08:48:23.457Z,32.56
2018-07-10T08:49:23.484Z,32.56
2018-07-10T08:50:23.513Z,32.56
2018-07-10T08:51:23.539Z,32.46
2018-07-10T08:52:23.567Z,32.47
2018-07-10T08:53:23.595Z,32.46
2018-07-10T08:54:23.662Z,32.46
2018-07-10T08:55:23.649Z,32.26
2018-07-10T08:56:23.676Z,32.36
2018-07-10T08:57:23.704Z,32.46
2018-07-10T08:58:23.733Z,32.36
2018-07-10T08:59:23.774Z,32.26
2018-07-10T09:00:23.787Z,32.28
2018-07-10T09:01:23.823Z,32.46
2018-07-10T09:02:23.843Z,32.56
2018-07-10T09:03:23.869Z,32.46
2018-07-10T09:04:23.896Z,32.56
2018-07-10T09:05:23.924Z,32.37
2018-07-10T09:06:23.952Z,32.36
2018-07-10T09:07:23.982Z,32.36
2018-07-10T09:08:24.008Z,32.36
2018-07-10T09:09:24.034Z,32.26
2018-07-10T09:10:24.079Z,32.56
2018-07-10T09:11:24.089Z,32.36
2018-07-10T09:12:24.117Z,32.26
2018-07-10T09:13:24.145Z,32.56
2018-07-10T09:14:24.171Z,32.36
2018-07-10T09:15:24.199Z,32.36
2018-07-10T09:16:24.226Z,32.46
2018-07-10T09:17:24.255Z,32.46
2018-07-10T09:18:24.319Z,32.36
2018-07-10T09:19:24.309Z,32.46
2018-07-10T09:20:24.370Z,32.46
2018-07-10T09:21:24.385Z,32.36
2018-07-10T09:22:24.390Z,32.46
2018-07-10T09:23:24.423Z,32.46
2018-07-10T09:24:24.447Z,32.46
2018-07-10T09:25:24.476Z,32.36
2018-07-10T09:26:24.500Z,32.36
2018-07-10T09:27:24.528Z,32.36
2018-07-10T09:28:24.557Z,32.46
2018-07-10T09:29:24.583Z,32.36
2018-07-10T09:30:24.610Z,32.46
2018-07-10T09:31:24.638Z,32.36
2018-07-10T09:32:24.667Z,32.75
2018-07-10T09:33:24.721Z,32.65
2018-07-10T09:34:24.740Z,32.65
2018-07-10T09:35:24.747Z,32.36
2018-07-10T09:36:24.798Z,32.36
2018-07-10T09:37:24.803Z,32.65
2018-07-10T09:38:24.833Z,32.46
2018-07-10T09:39:24.860Z,32.56
2018-07-10T09:40:24.889Z,32.84
2018-07-10T09:41:24.913Z,32.84
2018-07-10T09:42:24.940Z,32.46
2018-07-10T09:43:24.972Z,32.75
2018-07-10T09:44:25.077Z,32.65
2018-07-10T09:45:25.024Z,32.46
2018-07-10T09:46:25.091Z,32.65
2018-07-10T09:47:25.078Z,32.36
2018-07-10T09:48:25.124Z,32.56
2018-07-10T09:49:25.151Z,32.56
2018-07-10T09:50:25.161Z,32.56
2018-07-10T09:51:25.187Z,32.65
2018-07-10T09:52:25.216Z,32.84
2018-07-10T09:53:25.271Z,32.46
2018-07-10T09:54:25.270Z,32.65
2018-07-10T09:55:25.298Z,32.46
2018-07-10T09:56:25.325Z,32.46
2018-07-10T09:57:25.353Z,32.65
2018-07-10T09:58:25.380Z,32.46
2018-07-10T09:59:25.417Z,32.46
2018-07-10T10:00:25.435Z,32.56
2018-07-10T10:01:25.464Z,32.56
2018-07-10T10:02:25.490Z,32.46
2018-07-10T10:03:25.518Z,32.46
2018-07-10T10:04:25.546Z,32.36
2018-07-10T10:05:25.576Z,32.46
2018-07-10T10:06:25.604Z,32.46
2018-07-10T10:07:25.628Z,32.46
2018-07-10T10:08:25.671Z,32.36
2018-07-10T10:09:25.683Z,32.36
2018-07-10T10:10:25.710Z,32.36
2018-07-10T10:11:25.737Z,32.65
2018-07-10T10:12:25.765Z,32.26
2018-07-10T10:13:25.793Z,32.36
2018-07-10T10:14:25.820Z,32.46
2018-07-10T10:15:25.847Z,32.26
2018-07-10T10:16:25.875Z,32.56
2018-07-10T10:17:25.904Z,32.36
2018-07-10T10:18:25.931Z,32.36
2018-07-10T10:19:25.960Z,32.46
2018-07-10T10:20:25.985Z,32.36
2018-07-10T10:21:26.037Z,32.36
2018-07-10T10:22:26.040Z,32.26
2018-07-10T10:23:26.117Z,32.56
2018-07-10T10:24:26.095Z,32.26
2018-07-10T10:25:26.124Z,32.46
2018-07-10T10:26:26.150Z,32.56
2018-07-10T10:27:26.178Z,32.36
2018-07-10T10:28:26.205Z,32.36
2018-07-10T10:29:26.232Z,32.36
2018-07-10T10:30:26.263Z,32.56
2018-07-10T10:31:26.288Z,32.36
2018-07-10T10:32:26.316Z,32.36
2018-07-10T10:33:26.366Z,32.36
2018-07-10T10:34:26.369Z,32.56
2018-07-10T10:35:26.397Z,32.56
2018-07-10T10:36:26.425Z,32.46
2018-07-10T10:37:26.453Z,32.46
2018-07-10T10:38:26.479Z,32.36
2018-07-10T10:39:26.507Z,32.46
2018-07-10T10:40:26.536Z,32.36
2018-07-10T10:41:26.581Z,32.36
2018-07-10T10:42:26.589Z,32.36
2018-07-10T10:43:26.618Z,32.36
2018-07-10T10:44:26.645Z,32.46
2018-07-10T10:45:26.673Z,32.56
2018-07-10T10:46:26.699Z,32.56
2018-07-10T10:47:26.727Z,32.26
2018-07-10T10:48:26.755Z,32.26
2018-07-10T10:49:26.817Z,32.46
2018-07-10T10:50:26.810Z,32.26
2018-07-10T10:51:26.840Z,32.26
2018-07-10T10:52:26.864Z,32.07
2018-07-10T10:53:26.893Z,32.26
2018-07-10T10:54:26.920Z,32.26
2018-07-10T10:55:26.947Z,32.07
2018-07-10T10:56:26.976Z,32.26
2018-07-10T10:57:27.002Z,32.26
2018-07-10T10:58:27.031Z,32.36
2018-07-10T10:59:27.057Z,32.07
2018-07-10T11:00:27.085Z,31.97
2018-07-10T11:01:27.114Z,32.07
2018-07-10T11:02:27.220Z,32.36
2018-07-10T11:03:27.168Z,32.09
2018-07-10T11:04:27.196Z,32.36
2018-07-10T11:05:27.227Z,32.46
2018-07-10T11:06:27.249Z,32.26
2018-07-10T11:07:27.278Z,32.07
2018-07-10T11:08:27.305Z,32.07
2018-07-10T11:09:27.334Z,32.17
2018-07-10T11:10:27.361Z,32.07
2018-07-10T11:11:27.389Z,32.36
2018-07-10T11:12:27.415Z,32.09
2018-07-10T11:13:27.443Z,32.07
2018-07-10T11:14:27.469Z,32.07
2018-07-10T11:15:27.551Z,32.17
2018-07-10T11:16:27.528Z,32.17
2018-07-10T11:17:27.553Z,32.07
2018-07-10T11:18:27.579Z,32.17
2018-07-10T11:19:27.607Z,32.36
2018-07-10T11:20:27.635Z,32.07
2018-07-10T11:21:27.662Z,32.07
2018-07-10T11:22:27.689Z,32.07
2018-07-10T11:23:27.717Z,32.26
2018-07-10T11:24:27.745Z,32.17
2018-07-10T11:25:27.773Z,32.17
2018-07-10T11:26:27.799Z,32.07
2018-07-10T11:27:27.829Z,32.07
2018-07-10T11:28:27.855Z,32.17
2018-07-10T11:29:27.884Z,32.07
2018-07-10T11:30:27.971Z,31.97
2018-07-10T11:31:27.937Z,32.07
2018-07-10T11:32:27.965Z,32.07
2018-07-10T11:33:27.995Z,32.07
2018-07-10T11:34:28.021Z,32.17
2018-07-10T11:35:28.049Z,31.97
2018-07-10T11:36:28.075Z,32.07
2018-07-10T11:37:28.103Z,32.26
2018-07-10T11:38:28.130Z,32.07
2018-07-10T11:39:28.158Z,32.17
2018-07-10T11:40:28.186Z,32.07
2018-07-10T11:41:28.212Z,32.17
2018-07-10T11:42:28.241Z,32.26
2018-07-10T11:43:28.267Z,32.17
2018-07-10T11:44:28.295Z,32.17
2018-07-10T11:45:28.323Z,32.17
2018-07-10T11:46:28.350Z,31.97
2018-07-10T11:47:28.404Z,32.17
2018-07-10T11:48:28.405Z,32.17
2018-07-10T11:49:28.433Z,31.87
2018-07-10T11:50:28.461Z,32.18
2018-07-10T11:51:28.588Z,32.18
2018-07-10T11:52:28.515Z,32.17
2018-07-10T11:53:28.543Z,32.18
2018-07-10T11:54:28.569Z,31.97
2018-07-10T11:55:28.597Z,31.97
2018-07-10T11:56:28.644Z,32.07
2018-07-10T11:57:28.675Z,31.99
2018-07-10T11:58:28.680Z,31.97
2018-07-10T11:59:28.707Z,31.99
2018-07-10T12:00:28.736Z,31.97
2018-07-10T12:01:28.764Z,32.07
2018-07-10T12:02:28.790Z,32.07
2018-07-10T12:03:28.817Z,31.87
2018-07-10T12:04:28.846Z,31.97
2018-07-10T12:05:28.877Z,32.07
2018-07-10T12:06:28.938Z,32.07
2018-07-10T12:07:28.928Z,32.07
2018-07-10T12:08:28.958Z,31.97
2018-07-10T12:09:28.983Z,31.97
2018-07-10T12:10:29.010Z,31.97
2018-07-10T12:11:29.038Z,31.97
2018-07-10T12:12:29.108Z,32.07
2018-07-10T12:13:29.104Z,32.07
2018-07-10T12:14:29.161Z,32.07
2018-07-10T12:15:29.154Z,31.97
2018-07-10T12:16:29.176Z,31.97
2018-07-10T12:17:29.205Z,31.87
2018-07-10T12:18:29.230Z,31.99
2018-07-10T12:19:29.258Z,31.97
2018-07-10T12:20:29.286Z,32.17
2018-07-10T12:21:29.313Z,31.97
2018-07-10T12:22:29.340Z,31.97
2018-07-10T12:23:29.367Z,32.07
2018-07-10T12:24:29.395Z,32.17
2018-07-10T12:25:29.458Z,31.87
2018-07-10T12:26:29.450Z,31.99
2018-07-10T12:27:29.481Z,32.09
2018-07-10T12:28:29.506Z,31.97
2018-07-10T12:29:29.533Z,31.97
2018-07-10T12:30:29.560Z,31.87
2018-07-10T12:31:29.588Z,32.17
2018-07-10T12:32:29.615Z,32.07
2018-07-10T12:33:29.644Z,32.07
2018-07-10T12:34:29.705Z,32.07
2018-07-10T12:35:29.698Z,32.46
2018-07-10T12:36:29.725Z,32.46
2018-07-10T12:37:29.754Z,32.36
2018-07-10T12:38:29.781Z,31.89
2018-07-10T12:39:29.808Z,32.17
2018-07-10T12:40:29.836Z,32.17
2018-07-10T12:41:29.864Z,32.07
2018-07-10T12:42:29.891Z,32.07
2018-07-10T12:43:29.964Z,32.36
2018-07-10T12:44:29.970Z,32.09
2018-07-10T12:45:29.976Z,32.26
2018-07-10T12:46:30.002Z,32.36
2018-07-10T12:47:30.029Z,31.79
2018-07-10T12:48:30.057Z,31.78
2018-07-10T12:49:30.142Z,32.26
2018-07-10T12:50:30.111Z,32.37
2018-07-10T12:51:30.140Z,32.26
2018-07-10T12:52:30.166Z,31.87